createdAt,value
2022-10-20T00:00:26.165Z,34.19
2022-10-20T00:00:56.238Z,34.21
2022-10-20T00:01:26.313Z,34.25
2022-10-20T00:01:56.388Z,34.25
2022-10-20T00:02:26.497Z,34.24
2022-10-20T00:02:56.484Z,34.27
2022-10-20T00:03:26.576Z,34.27
2022-10-20T00:03:56.645Z,34.23
2022-10-20T00:04:26.714Z,34.29
2022-10-20T00:04:56.789Z,34.26
2022-10-20T00:05:26.876Z,34.27
2022-10-20T00:05:56.931Z,34.21
2022-10-20T00:06:27.005Z,34.21
2022-10-20T00:06:57.077Z,34.20
2022-10-20T00:07:27.138Z,34.27
2022-10-20T00:07:57.215Z,34.27
2022-10-20T00:08:27.329Z,34.24
2022-10-20T00:08:57.431Z,34.27
2022-10-20T00:09:27.377Z,34.30
2022-10-20T00:09:57.451Z,34.32
2022-10-20T00:10:27.530Z,34.31
2022-10-20T00:10:57.603Z,34.27
2022-10-20T00:11:27.679Z,34.33
2022-10-20T00:11:57.753Z,34.30
2022-10-20T00:12:27.824Z,34.29
2022-10-20T00:12:57.892Z,34.32
2022-10-20T00:13:27.962Z,34.30
2022-10-20T00:13:58.031Z,34.34
2022-10-20T00:14:28.101Z,34.31
2022-10-20T00:14:58.169Z,34.28
2022-10-20T00:15:28.238Z,34.28
2022-10-20T00:15:58.311Z,34.27
2022-10-20T00:16:28.386Z,34.28
2022-10-20T00:16:58.455Z,34.31
2022-10-20T00:17:28.528Z,34.28
2022-10-20T00:17:58.597Z,34.24
2022-10-20T00:18:28.670Z,34.30
2022-10-20T00:18:58.746Z,34.28
2022-10-20T00:19:28.815Z,34.33
2022-10-20T00:19:58.884Z,34.31
2022-10-20T00:20:28.981Z,34.25
2022-10-20T00:20:59.024Z,34.30
2022-10-20T00:21:29.093Z,34.31
2022-10-20T00:21:59.170Z,34.27
2022-10-20T00:22:29.238Z,34.28
2022-10-20T00:22:59.314Z,34.31
2022-10-20T00:23:29.380Z,34.28
2022-10-20T00:23:59.456Z,34.21
2022-10-20T00:24:29.522Z,34.27
2022-10-20T00:24:59.594Z,34.27
2022-10-20T00:25:29.659Z,34.24
2022-10-20T00:25:59.727Z,34.25
2022-10-20T00:26:29.808Z,34.27
2022-10-20T00:26:59.875Z,34.32
2022-10-20T00:27:29.939Z,34.31
2022-10-20T00:28:00.008Z,34.34
2022-10-20T00:28:30.082Z,34.28
2022-10-20T00:29:00.151Z,34.32
2022-10-20T00:29:30.217Z,34.27
2022-10-20T00:30:00.308Z,34.31
2022-10-20T00:30:30.368Z,34.25
2022-10-20T00:31:00.438Z,34.32
2022-10-20T00:31:30.514Z,34.36
2022-10-20T00:32:00.582Z,34.31
2022-10-20T00:32:30.648Z,34.32
2022-10-20T00:33:00.719Z,34.35
2022-10-20T00:33:30.790Z,34.33
2022-10-20T00:34:00.862Z,34.32
2022-10-20T00:34:30.964Z,34.28
2022-10-20T00:35:01.045Z,34.28
2022-10-20T00:35:31.133Z,34.24
2022-10-20T00:36:01.184Z,34.22
2022-10-20T00:36:31.253Z,34.24
2022-10-20T00:37:01.305Z,34.21
2022-10-20T00:37:31.330Z,34.25
2022-10-20T00:38:01.361Z,34.21
2022-10-20T00:38:31.388Z,34.25
2022-10-20T00:39:01.421Z,34.22
2022-10-20T00:39:31.449Z,34.21
2022-10-20T00:40:01.479Z,34.24
2022-10-20T00:40:31.512Z,34.28
2022-10-20T00:41:01.549Z,34.26
2022-10-20T00:41:31.578Z,34.26
2022-10-20T00:42:01.611Z,34.28
2022-10-20T00:42:31.639Z,34.34
2022-10-20T00:43:01.671Z,34.31
2022-10-20T00:43:31.702Z,34.34
2022-10-20T00:44:01.738Z,34.31
2022-10-20T00:44:31.767Z,34.31
2022-10-20T00:45:01.798Z,34.32
2022-10-20T00:45:31.828Z,34.25
2022-10-20T00:46:01.855Z,34.32
2022-10-20T00:46:31.887Z,34.29
2022-10-20T00:47:01.943Z,34.31
2022-10-20T00:47:32.064Z,34.22
2022-10-20T00:48:02.119Z,34.27
2022-10-20T00:48:32.187Z,34.28
2022-10-20T00:49:02.261Z,34.30
2022-10-20T00:49:32.327Z,34.32
2022-10-20T00:50:02.397Z,34.33
2022-10-20T00:50:32.472Z,34.32
2022-10-20T00:51:02.565Z,34.29
2022-10-20T00:51:32.611Z,34.34
2022-10-20T00:52:02.687Z,34.28
2022-10-20T00:52:33.020Z,34.28
2022-10-20T00:53:02.857Z,34.29
2022-10-20T00:53:32.926Z,34.28
2022-10-20T00:54:02.998Z,34.26
2022-10-20T00:54:33.066Z,34.29
2022-10-20T00:55:03.143Z,34.29
2022-10-20T00:55:33.217Z,34.30
2022-10-20T00:56:03.286Z,34.26
2022-10-20T00:56:33.362Z,34.29
2022-10-20T00:57:33.718Z,34.32
2022-10-20T00:58:03.541Z,34.35
2022-10-20T00:58:33.604Z,34.29
2022-10-20T00:59:03.672Z,34.31
2022-10-20T00:59:33.741Z,34.29
2022-10-20T01:00:03.815Z,34.31
2022-10-20T01:00:33.882Z,34.26
2022-10-20T01:01:03.950Z,34.29
2022-10-20T01:01:34.107Z,34.24
2022-10-20T01:02:04.157Z,34.29
2022-10-20T01:02:34.099Z,34.29
2022-10-20T01:03:04.178Z,34.33
2022-10-20T01:03:34.260Z,34.33
2022-10-20T01:04:04.335Z,34.32
2022-10-20T01:04:34.407Z,34.26
2022-10-20T01:05:04.477Z,34.29
2022-10-20T01:05:34.548Z,34.34
2022-10-20T01:06:04.643Z,34.35
2022-10-20T01:06:34.733Z,34.32
2022-10-20T01:07:04.783Z,34.37
2022-10-20T01:07:35.206Z,34.36
2022-10-20T01:08:04.888Z,34.38
2022-10-20T01:08:35.016Z,34.32
2022-10-20T01:09:05.164Z,34.37
2022-10-20T01:09:35.118Z,34.36
2022-10-20T01:10:05.228Z,34.37
2022-10-20T01:10:35.256Z,34.33
2022-10-20T01:11:05.332Z,34.38
2022-10-20T01:11:35.409Z,34.40
2022-10-20T01:12:05.472Z,34.37
2022-10-20T01:12:35.541Z,34.36
2022-10-20T01:13:05.618Z,34.37
2022-10-20T01:13:35.691Z,34.33
2022-10-20T01:14:05.763Z,34.33
2022-10-20T01:14:35.835Z,34.34
2022-10-20T01:15:05.913Z,34.38
2022-10-20T01:15:35.978Z,34.43
2022-10-20T01:16:06.059Z,34.42
2022-10-20T01:16:36.128Z,34.34
2022-10-20T01:17:06.195Z,34.33
2022-10-20T01:17:36.607Z,34.36
2022-10-20T01:18:06.364Z,34.36
2022-10-20T01:18:36.433Z,34.37
2022-10-20T01:19:06.506Z,34.40
2022-10-20T01:19:36.579Z,34.37
2022-10-20T01:20:06.652Z,34.41
2022-10-20T01:20:36.719Z,34.37
2022-10-20T01:21:06.797Z,34.40
2022-10-20T01:21:36.899Z,34.36
2022-10-20T01:22:06.943Z,34.37
2022-10-20T01:22:37.031Z,34.38
2022-10-20T01:23:07.111Z,34.35
2022-10-20T01:23:37.179Z,34.38
2022-10-20T01:24:07.248Z,34.38
2022-10-20T01:24:37.323Z,34.39
2022-10-20T01:25:07.391Z,34.34
2022-10-20T01:25:37.457Z,34.38
2022-10-20T01:26:07.528Z,34.36
2022-10-20T01:26:37.601Z,34.32
2022-10-20T01:27:07.677Z,34.36
2022-10-20T01:27:38.243Z,34.32
2022-10-20T01:28:07.764Z,34.38
2022-10-20T01:28:37.845Z,34.33
2022-10-20T01:29:07.906Z,34.36
2022-10-20T01:29:37.978Z,34.34
2022-10-20T01:30:08.050Z,34.33
2022-10-20T01:30:38.124Z,34.30
2022-10-20T01:31:08.196Z,34.34
2022-10-20T01:31:38.272Z,34.33
2022-10-20T01:32:08.345Z,34.35
2022-10-20T01:32:38.414Z,34.34
2022-10-20T01:33:08.485Z,34.36
2022-10-20T01:33:38.566Z,34.31
2022-10-20T01:34:08.634Z,34.36
2022-10-20T01:34:38.707Z,34.31
2022-10-20T01:35:08.785Z,34.34
2022-10-20T01:35:38.852Z,34.33
2022-10-20T01:36:08.921Z,34.36
2022-10-20T01:36:39.021Z,34.34
2022-10-20T01:37:09.034Z,34.34
2022-10-20T01:37:48.741Z,34.37
2022-10-20T01:38:09.119Z,34.36
2022-10-20T01:38:39.156Z,34.41
2022-10-20T01:39:09.184Z,34.35
2022-10-20T01:39:39.222Z,34.35
2022-10-20T01:40:09.256Z,34.38
2022-10-20T01:40:39.285Z,34.38
2022-10-20T01:41:09.317Z,34.31
2022-10-20T01:41:39.351Z,34.44
2022-10-20T01:42:09.383Z,34.37
2022-10-20T01:42:39.414Z,34.40
2022-10-20T01:43:09.442Z,34.34
2022-10-20T01:43:39.482Z,34.34
2022-10-20T01:44:09.510Z,34.37
2022-10-20T01:44:39.546Z,34.31
2022-10-20T01:45:09.573Z,34.35
2022-10-20T01:45:39.609Z,34.35
2022-10-20T01:46:09.648Z,34.34
2022-10-20T01:46:39.677Z,34.27
2022-10-20T01:47:09.741Z,34.28
2022-10-20T01:47:39.810Z,34.30
2022-10-20T01:48:09.883Z,34.30
2022-10-20T01:48:39.955Z,34.33
2022-10-20T01:49:10.084Z,34.34
2022-10-20T01:49:40.132Z,34.39
2022-10-20T01:50:10.203Z,34.37
2022-10-20T01:50:40.276Z,34.42
2022-10-20T01:51:10.365Z,34.34
2022-10-20T01:52:10.536Z,34.36
2022-10-20T01:52:40.584Z,34.38
2022-10-20T01:53:10.653Z,34.34
2022-10-20T01:53:40.721Z,34.39
2022-10-20T01:54:10.791Z,34.38
2022-10-20T01:54:40.872Z,34.36
2022-10-20T01:55:10.943Z,34.39
2022-10-20T01:55:41.009Z,34.38
2022-10-20T01:56:11.116Z,34.32
2022-10-20T01:56:41.191Z,34.35
2022-10-20T01:57:11.260Z,34.43
2022-10-20T01:57:41.335Z,34.41
2022-10-20T01:58:11.406Z,34.40
2022-10-20T01:58:41.474Z,34.42
2022-10-20T01:59:11.546Z,34.38
2022-10-20T01:59:41.624Z,34.41
2022-10-20T02:00:11.692Z,34.42
2022-10-20T02:00:41.768Z,34.41
2022-10-20T02:01:11.945Z,34.41
2022-10-20T02:01:41.906Z,34.45
2022-10-20T02:02:11.966Z,34.39
2022-10-20T02:02:42.038Z,34.39
2022-10-20T02:03:12.109Z,34.38
2022-10-20T02:03:42.183Z,34.37
2022-10-20T02:04:12.258Z,34.34
2022-10-20T02:04:42.337Z,34.38
2022-10-20T02:05:12.404Z,34.39
2022-10-20T02:05:42.473Z,34.42
2022-10-20T02:06:12.551Z,34.39
2022-10-20T02:06:42.625Z,34.32
2022-10-20T02:07:12.726Z,34.37
2022-10-20T02:07:42.768Z,34.34
2022-10-20T02:08:12.864Z,34.38
2022-10-20T02:08:42.961Z,34.31
2022-10-20T02:09:13.007Z,34.35
2022-10-20T02:09:43.086Z,34.32
2022-10-20T02:10:13.136Z,34.33
2022-10-20T02:10:43.199Z,34.28
2022-10-20T02:11:13.280Z,34.27
2022-10-20T02:11:43.348Z,34.25
2022-10-20T02:12:13.434Z,34.27
2022-10-20T02:12:43.498Z,34.32
2022-10-20T02:13:13.568Z,34.32
2022-10-20T02:13:43.639Z,34.37
2022-10-20T02:14:13.713Z,34.28
2022-10-20T02:14:43.786Z,34.30
2022-10-20T02:15:13.834Z,34.36
2022-10-20T02:15:43.912Z,34.34
2022-10-20T02:16:13.984Z,34.34
2022-10-20T02:16:44.056Z,34.38
2022-10-20T02:17:14.125Z,34.36
2022-10-20T02:17:44.202Z,34.36
2022-10-20T02:18:14.273Z,34.33
2022-10-20T02:18:44.354Z,34.33
2022-10-20T02:19:14.414Z,34.33
2022-10-20T02:19:44.483Z,34.33
2022-10-20T02:20:14.549Z,34.33
2022-10-20T02:20:44.623Z,34.28
2022-10-20T02:21:14.698Z,34.36
2022-10-20T02:21:44.763Z,34.38
2022-10-20T02:22:14.857Z,34.36
2022-10-20T02:22:44.908Z,34.33
2022-10-20T02:23:14.975Z,34.42
2022-10-20T02:23:45.050Z,34.41
2022-10-20T02:24:15.120Z,34.43
2022-10-20T02:24:45.188Z,34.40
2022-10-20T02:25:15.256Z,34.43
2022-10-20T02:25:45.325Z,34.36
2022-10-20T02:26:15.398Z,34.32
2022-10-20T02:26:45.469Z,34.35
2022-10-20T02:27:15.541Z,34.38
2022-10-20T02:27:45.612Z,34.40
2022-10-20T02:28:15.692Z,34.46
2022-10-20T02:28:45.756Z,34.48
2022-10-20T02:29:15.831Z,34.46
2022-10-20T02:29:45.893Z,34.43
2022-10-20T02:30:15.962Z,34.47
2022-10-20T02:30:46.038Z,34.50
2022-10-20T02:31:16.130Z,34.43
2022-10-20T02:31:46.199Z,34.45
2022-10-20T02:32:16.272Z,34.47
2022-10-20T02:32:46.342Z,34.48
2022-10-20T02:33:16.410Z,34.49
2022-10-20T02:33:46.481Z,34.52
2022-10-20T02:34:16.551Z,34.44
2022-10-20T02:34:46.622Z,34.49
2022-10-20T02:35:16.691Z,34.46
2022-10-20T02:35:46.757Z,34.48
2022-10-20T02:36:16.837Z,34.51
2022-10-20T02:36:46.903Z,34.49
2022-10-20T02:37:47.068Z,34.46
2022-10-20T02:38:17.075Z,34.51
2022-10-20T02:38:47.108Z,34.48
2022-10-20T02:39:17.138Z,34.48
2022-10-20T02:39:47.171Z,34.40
2022-10-20T02:40:17.200Z,34.41
2022-10-20T02:40:47.235Z,34.48
2022-10-20T02:41:17.273Z,34.49
2022-10-20T02:41:47.308Z,34.49
2022-10-20T02:42:17.351Z,34.51
2022-10-20T02:42:47.366Z,34.51
2022-10-20T02:43:17.409Z,34.47
2022-10-20T02:43:47.446Z,34.47
2022-10-20T02:44:17.472Z,34.43
2022-10-20T02:44:47.508Z,34.47
2022-10-20T02:45:17.537Z,34.44
2022-10-20T02:45:47.563Z,34.43
2022-10-20T02:46:17.694Z,34.48
2022-10-20T02:46:47.625Z,34.50
2022-10-20T02:47:17.689Z,34.46
2022-10-20T02:47:47.772Z,34.46
2022-10-20T02:48:17.840Z,34.50
2022-10-20T02:48:47.906Z,34.47
2022-10-20T02:49:17.982Z,34.43
2022-10-20T02:49:48.056Z,34.46
2022-10-20T02:50:18.119Z,34.43
2022-10-20T02:50:48.192Z,34.46
2022-10-20T02:51:18.284Z,34.42
2022-10-20T02:51:48.354Z,34.43
2022-10-20T02:52:18.432Z,34.42
2022-10-20T02:52:48.501Z,34.41
2022-10-20T02:53:18.596Z,34.38
2022-10-20T02:53:48.647Z,34.40
2022-10-20T02:54:18.718Z,34.36
2022-10-20T02:54:48.789Z,34.40
2022-10-20T02:55:48.902Z,34.35
2022-10-20T02:56:18.998Z,34.38
2022-10-20T02:56:49.066Z,34.40
2022-10-20T02:57:19.138Z,34.38
2022-10-20T02:57:49.212Z,34.39
2022-10-20T02:58:19.280Z,34.40
2022-10-20T02:58:49.354Z,34.36
2022-10-20T02:59:19.423Z,34.38
2022-10-20T02:59:49.503Z,34.33
2022-10-20T03:00:19.567Z,34.35
2022-10-20T03:00:49.640Z,34.35
2022-10-20T03:01:19.740Z,34.36
2022-10-20T03:01:49.855Z,34.35
2022-10-20T03:02:19.787Z,34.38
2022-10-20T03:02:49.857Z,34.35
2022-10-20T03:03:19.923Z,34.36
2022-10-20T03:03:49.995Z,34.43
2022-10-20T03:04:20.114Z,34.46
2022-10-20T03:04:50.177Z,34.39
2022-10-20T03:05:20.243Z,34.39
2022-10-20T03:05:50.317Z,34.45
2022-10-20T03:06:20.388Z,34.39
2022-10-20T03:06:50.455Z,34.42
2022-10-20T03:07:20.529Z,34.38
2022-10-20T03:07:50.603Z,34.37
2022-10-20T03:08:20.690Z,34.37
2022-10-20T03:08:50.803Z,34.39
2022-10-20T03:09:20.744Z,34.38
2022-10-20T03:09:50.812Z,34.37
2022-10-20T03:10:20.883Z,34.34
2022-10-20T03:10:50.957Z,34.31
2022-10-20T03:11:21.031Z,34.34
2022-10-20T03:11:51.106Z,34.35
2022-10-20T03:12:21.175Z,34.34
2022-10-20T03:12:51.247Z,34.32
2022-10-20T03:13:21.326Z,34.30
2022-10-20T03:13:51.253Z,34.30
2022-10-20T03:14:21.325Z,34.30
2022-10-20T03:14:51.390Z,34.33
2022-10-20T03:15:21.467Z,34.34
2022-10-20T03:15:51.543Z,34.26
2022-10-20T03:16:21.613Z,34.29
2022-10-20T03:16:51.687Z,34.30
2022-10-20T03:17:21.762Z,34.32
2022-10-20T03:17:51.826Z,34.29
2022-10-20T03:18:21.897Z,34.26
2022-10-20T03:18:51.973Z,34.25
2022-10-20T03:19:22.047Z,34.28
2022-10-20T03:19:52.116Z,34.25
2022-10-20T03:20:22.183Z,34.20
2022-10-20T03:20:52.259Z,34.24
2022-10-20T03:21:22.329Z,34.25
2022-10-20T03:21:52.402Z,34.24
2022-10-20T03:22:22.526Z,34.19
2022-10-20T03:22:52.585Z,34.21
2022-10-20T03:23:22.676Z,34.18
2022-10-20T03:23:52.726Z,34.21
2022-10-20T03:24:22.805Z,34.21
2022-10-20T03:24:52.871Z,34.19
2022-10-20T03:25:22.943Z,34.22
2022-10-20T03:25:53.017Z,34.19
2022-10-20T03:26:23.085Z,34.19
2022-10-20T03:26:53.158Z,34.15
2022-10-20T03:27:23.232Z,34.20
2022-10-20T03:27:53.299Z,34.18
2022-10-20T03:28:23.371Z,34.16
2022-10-20T03:28:53.448Z,34.20
2022-10-20T03:29:23.515Z,34.24
2022-10-20T03:29:53.583Z,34.15
2022-10-20T03:30:23.657Z,34.10
2022-10-20T03:30:53.733Z,34.18
2022-10-20T03:31:23.814Z,34.15
2022-10-20T03:31:53.916Z,34.16
2022-10-20T03:32:23.970Z,34.16
2022-10-20T03:32:54.034Z,34.18
2022-10-20T03:33:24.103Z,34.15
2022-10-20T03:33:54.177Z,34.12
2022-10-20T03:34:24.245Z,34.18
2022-10-20T03:34:54.315Z,34.14
2022-10-20T03:35:24.388Z,34.20
2022-10-20T03:35:54.455Z,34.20
2022-10-20T03:36:24.534Z,34.16
2022-10-20T03:36:54.594Z,34.20
2022-10-20T03:37:24.624Z,34.18
2022-10-20T03:37:54.649Z,34.18
2022-10-20T03:38:24.709Z,34.20
2022-10-20T03:38:54.719Z,34.17
2022-10-20T03:39:24.751Z,34.18
2022-10-20T03:39:54.780Z,34.20
2022-10-20T03:40:24.816Z,34.16
2022-10-20T03:40:54.925Z,34.18
2022-10-20T03:41:24.933Z,34.15
2022-10-20T03:41:54.978Z,34.14
2022-10-20T03:42:24.997Z,34.13
2022-10-20T03:42:55.034Z,34.12
2022-10-20T03:43:25.063Z,34.15
2022-10-20T03:43:55.091Z,34.16
2022-10-20T03:44:25.123Z,34.10
2022-10-20T03:44:55.152Z,34.19
2022-10-20T03:45:25.182Z,34.18
2022-10-20T03:45:55.214Z,34.22
2022-10-20T03:46:25.250Z,34.16
2022-10-20T03:46:55.299Z,34.15
2022-10-20T03:47:25.370Z,34.15
2022-10-20T03:47:55.443Z,34.21
2022-10-20T03:48:25.512Z,34.21
2022-10-20T03:48:55.584Z,34.14
2022-10-20T03:49:25.653Z,34.19
2022-10-20T03:49:55.806Z,34.24
2022-10-20T03:50:25.733Z,34.16
2022-10-20T03:50:55.801Z,34.16
2022-10-20T03:51:25.872Z,34.12
2022-10-20T03:51:55.945Z,34.18
2022-10-20T03:52:26.013Z,34.19
2022-10-20T03:52:56.090Z,34.19
2022-10-20T03:53:26.171Z,34.16
2022-10-20T03:53:56.259Z,34.18
2022-10-20T03:54:26.305Z,34.18
2022-10-20T03:54:56.385Z,34.18
2022-10-20T03:55:26.452Z,34.19
2022-10-20T03:55:56.521Z,34.21
2022-10-20T03:56:26.602Z,34.22
2022-10-20T03:56:56.757Z,34.18
2022-10-20T03:57:26.695Z,34.14
2022-10-20T03:57:56.764Z,34.14
2022-10-20T03:58:26.833Z,34.15
2022-10-20T03:58:56.979Z,34.15
2022-10-20T03:59:29.628Z,34.09
2022-10-20T03:59:56.956Z,34.07
2022-10-20T04:00:27.026Z,34.13
2022-10-20T04:00:57.096Z,34.09
2022-10-20T04:01:27.223Z,34.18
2022-10-20T04:01:57.344Z,34.18
2022-10-20T04:02:27.276Z,34.10
2022-10-20T04:02:57.343Z,34.10
2022-10-20T04:03:27.415Z,34.14
2022-10-20T04:03:57.487Z,34.14
2022-10-20T04:04:27.558Z,34.14
2022-10-20T04:04:57.635Z,34.06
2022-10-20T04:05:27.708Z,34.10
2022-10-20T04:05:57.777Z,34.06
2022-10-20T04:06:27.859Z,34.07
2022-10-20T04:06:57.931Z,34.09
2022-10-20T04:07:28.003Z,34.06
2022-10-20T04:07:58.077Z,34.09
2022-10-20T04:08:28.240Z,34.09
2022-10-20T04:08:58.279Z,34.03
2022-10-20T04:09:28.233Z,34.04
2022-10-20T04:09:58.308Z,34.07
2022-10-20T04:10:28.378Z,34.01
2022-10-20T04:10:58.452Z,34.05
2022-10-20T04:11:28.531Z,34.07
2022-10-20T04:11:58.597Z,34.04
2022-10-20T04:12:28.668Z,34.08
2022-10-20T04:12:58.737Z,34.02
2022-10-20T04:13:28.807Z,34.03
2022-10-20T04:13:58.880Z,34.06
2022-10-20T04:14:28.952Z,34.03
2022-10-20T04:14:59.022Z,34.03
2022-10-20T04:15:29.099Z,34.00
2022-10-20T04:15:59.168Z,34.05
2022-10-20T04:16:29.243Z,34.00
2022-10-20T04:16:59.322Z,34.02
2022-10-20T04:17:29.444Z,34.00
2022-10-20T04:17:59.506Z,34.00
2022-10-20T04:18:29.578Z,33.94
2022-10-20T04:18:59.649Z,33.94
2022-10-20T04:19:29.717Z,33.94
2022-10-20T04:19:59.789Z,33.98
2022-10-20T04:20:29.859Z,33.96
2022-10-20T04:20:59.926Z,33.98
2022-10-20T04:21:30.005Z,33.93
2022-10-20T04:22:00.077Z,33.96
2022-10-20T04:22:30.147Z,33.94
2022-10-20T04:23:00.217Z,33.98
2022-10-20T04:23:30.291Z,33.89
2022-10-20T04:24:00.362Z,33.96
2022-10-20T04:24:30.461Z,33.94
2022-10-20T04:25:00.507Z,33.91
2022-10-20T04:25:30.573Z,33.89
2022-10-20T04:26:00.648Z,33.92
2022-10-20T04:26:30.724Z,33.92
2022-10-20T04:27:00.792Z,33.90
2022-10-20T04:27:30.864Z,33.93
2022-10-20T04:28:00.940Z,33.92
2022-10-20T04:28:31.016Z,33.95
2022-10-20T04:29:01.093Z,33.96
2022-10-20T04:29:31.164Z,33.89
2022-10-20T04:30:01.234Z,33.90
2022-10-20T04:30:31.309Z,33.90
2022-10-20T04:31:01.391Z,33.86
2022-10-20T04:31:31.467Z,33.89
2022-10-20T04:32:01.541Z,33.92
2022-10-20T04:32:31.613Z,33.86
2022-10-20T04:33:01.679Z,33.82
2022-10-20T04:33:31.756Z,33.79
2022-10-20T04:34:01.825Z,33.79
2022-10-20T04:34:31.910Z,33.76
2022-10-20T04:35:01.983Z,33.75
2022-10-20T04:35:32.056Z,33.78
2022-10-20T04:36:02.158Z,33.73
2022-10-20T04:36:32.219Z,33.73
2022-10-20T04:37:02.263Z,33.78
2022-10-20T04:37:32.291Z,33.75
2022-10-20T04:38:02.326Z,33.76
2022-10-20T04:38:32.360Z,33.79
2022-10-20T04:39:02.384Z,33.79
2022-10-20T04:39:32.420Z,33.80
2022-10-20T04:40:02.473Z,33.81
2022-10-20T04:40:32.477Z,33.82
2022-10-20T04:41:04.154Z,33.78
2022-10-20T04:41:32.627Z,33.84
2022-10-20T04:42:02.677Z,33.80
2022-10-20T04:42:32.693Z,33.84
2022-10-20T04:43:02.724Z,33.83
2022-10-20T04:43:32.759Z,33.78
2022-10-20T04:44:02.790Z,33.89
2022-10-20T04:44:32.823Z,33.83
2022-10-20T04:45:02.856Z,33.84
2022-10-20T04:45:32.884Z,33.83
2022-10-20T04:46:06.901Z,33.86
2022-10-20T04:46:32.983Z,33.86
2022-10-20T04:47:03.048Z,33.87
2022-10-20T04:47:33.224Z,33.86
2022-10-20T04:48:03.167Z,33.86
2022-10-20T04:48:33.241Z,33.83
2022-10-20T04:49:03.309Z,33.89
2022-10-20T04:49:33.379Z,33.87
2022-10-20T04:50:03.454Z,33.90
2022-10-20T04:50:33.524Z,33.90
2022-10-20T04:51:03.606Z,33.89
2022-10-20T04:51:33.680Z,33.89
2022-10-20T04:52:03.750Z,33.86
2022-10-20T04:52:33.824Z,33.92
2022-10-20T04:53:03.897Z,33.90
2022-10-20T04:53:33.975Z,33.89
2022-10-20T04:54:34.118Z,33.93
2022-10-20T04:55:04.198Z,33.92
2022-10-20T04:55:34.284Z,33.89
2022-10-20T04:56:04.333Z,33.92
2022-10-20T04:56:34.405Z,33.90
2022-10-20T04:57:04.473Z,33.96
2022-10-20T04:57:34.954Z,33.98
2022-10-20T04:58:04.639Z,33.90
2022-10-20T04:58:34.711Z,33.96
2022-10-20T04:59:08.318Z,33.93
2022-10-20T04:59:34.870Z,33.98
2022-10-20T05:00:04.942Z,33.93
2022-10-20T05:00:35.014Z,33.90
2022-10-20T05:01:05.087Z,33.98
2022-10-20T05:01:35.221Z,33.96
2022-10-20T05:02:05.344Z,33.99
2022-10-20T05:02:35.294Z,33.91
2022-10-20T05:03:05.431Z,33.96
2022-10-20T05:03:35.364Z,33.94
2022-10-20T05:04:05.431Z,33.96
2022-10-20T05:04:35.503Z,33.94
2022-10-20T05:05:05.584Z,33.93
2022-10-20T05:05:35.655Z,33.94
2022-10-20T05:06:05.735Z,33.96
2022-10-20T05:06:35.808Z,33.98
2022-10-20T05:07:05.879Z,33.96
2022-10-20T05:07:36.221Z,33.94
2022-10-20T05:08:05.997Z,33.96
2022-10-20T05:08:36.240Z,33.97
2022-10-20T05:09:06.123Z,34.02
2022-10-20T05:09:36.064Z,33.94
2022-10-20T05:10:06.139Z,34.00
2022-10-20T05:10:36.776Z,33.99
2022-10-20T05:11:06.313Z,33.96
2022-10-20T05:11:36.386Z,33.98
2022-10-20T05:12:06.549Z,33.96
2022-10-20T05:12:36.928Z,33.99
2022-10-20T05:13:06.602Z,33.99
2022-10-20T05:13:36.674Z,33.96
2022-10-20T05:14:06.746Z,34.03
2022-10-20T05:14:36.819Z,33.98
2022-10-20T05:15:06.886Z,33.96
2022-10-20T05:15:36.964Z,34.00
2022-10-20T05:16:07.034Z,33.96
2022-10-20T05:16:37.105Z,34.05
2022-10-20T05:17:09.314Z,34.00
2022-10-20T05:17:37.255Z,33.98
2022-10-20T05:18:07.324Z,34.05
2022-10-20T05:18:37.402Z,34.04
2022-10-20T05:19:07.476Z,34.00
2022-10-20T05:19:37.546Z,34.04
2022-10-20T05:20:07.626Z,33.99
2022-10-20T05:20:41.268Z,34.02
2022-10-20T05:21:09.361Z,34.00
2022-10-20T05:21:37.934Z,34.05
2022-10-20T05:22:07.862Z,33.99
2022-10-20T05:22:38.326Z,34.00
2022-10-20T05:23:07.962Z,34.02
2022-10-20T05:23:38.033Z,34.04
2022-10-20T05:24:08.106Z,34.02
2022-10-20T05:24:38.180Z,34.05
2022-10-20T05:25:31.467Z,34.06
2022-10-20T05:25:38.441Z,34.03
2022-10-20T05:26:08.349Z,34.05
2022-10-20T05:26:38.445Z,34.06
2022-10-20T05:27:08.504Z,34.05
2022-10-20T05:27:38.572Z,34.03
2022-10-20T05:28:08.647Z,34.08
2022-10-20T05:28:38.719Z,34.09
2022-10-20T05:29:08.791Z,34.08
2022-10-20T05:29:38.863Z,34.08
2022-10-20T05:30:08.937Z,34.02
2022-10-20T05:30:39.080Z,34.09
2022-10-20T05:31:09.007Z,34.09
2022-10-20T05:31:39.076Z,34.08
2022-10-20T05:32:09.141Z,34.06
2022-10-20T05:32:39.211Z,34.09
2022-10-20T05:33:09.281Z,34.08
2022-10-20T05:33:39.350Z,34.05
2022-10-20T05:34:09.419Z,34.08
2022-10-20T05:34:39.503Z,34.06
2022-10-20T05:35:09.601Z,34.08
2022-10-20T05:35:39.675Z,34.10
2022-10-20T05:36:09.745Z,34.10
2022-10-20T05:36:39.817Z,34.05
2022-10-20T05:37:09.849Z,34.05
2022-10-20T05:37:39.882Z,34.08
2022-10-20T05:38:09.912Z,34.06
2022-10-20T05:38:39.944Z,34.08
2022-10-20T05:39:09.975Z,34.11
2022-10-20T05:39:40.050Z,34.05
2022-10-20T05:40:10.079Z,34.05
2022-10-20T05:40:40.123Z,33.96
2022-10-20T05:41:10.177Z,34.07
2022-10-20T05:41:40.182Z,34.10
2022-10-20T05:42:10.209Z,34.10
2022-10-20T05:42:40.243Z,34.09
2022-10-20T05:43:10.306Z,34.05
2022-10-20T05:43:40.348Z,34.05
2022-10-20T05:44:10.387Z,34.09
2022-10-20T05:44:40.433Z,34.04
2022-10-20T05:45:10.483Z,34.09
2022-10-20T05:45:40.529Z,34.07
2022-10-20T05:46:10.551Z,34.03
2022-10-20T05:46:40.580Z,34.01
2022-10-20T05:47:10.656Z,34.07
2022-10-20T05:47:40.734Z,34.07
2022-10-20T05:48:10.799Z,34.07
2022-10-20T05:48:43.247Z,34.09
2022-10-20T05:49:10.864Z,34.09
2022-10-20T05:49:40.943Z,34.10
2022-10-20T05:50:11.035Z,34.13
2022-10-20T05:50:41.177Z,34.07
2022-10-20T05:51:13.776Z,34.09
2022-10-20T05:51:41.219Z,34.08
2022-10-20T05:52:11.296Z,34.04
2022-10-20T05:52:41.370Z,34.09
2022-10-20T05:53:11.442Z,34.09
2022-10-20T05:53:41.510Z,34.05
2022-10-20T05:54:11.600Z,34.10
2022-10-20T05:54:41.659Z,34.09
2022-10-20T05:55:11.731Z,34.11
2022-10-20T05:55:41.805Z,34.09
2022-10-20T05:56:11.876Z,34.05
2022-10-20T05:56:41.967Z,34.11
2022-10-20T05:57:12.043Z,34.13
2022-10-20T05:57:42.018Z,34.10
2022-10-20T05:58:12.096Z,34.11
2022-10-20T05:58:42.191Z,34.13
2022-10-20T05:59:12.281Z,34.10
2022-10-20T05:59:42.347Z,34.18
2022-10-20T06:00:12.420Z,34.14
2022-10-20T06:00:42.495Z,34.18
2022-10-20T06:01:12.563Z,34.11
2022-10-20T06:01:42.634Z,34.14
2022-10-20T06:02:12.703Z,34.18
2022-10-20T06:02:42.775Z,34.18
2022-10-20T06:03:16.083Z,34.13
2022-10-20T06:03:42.908Z,34.16
2022-10-20T06:04:12.993Z,34.14
2022-10-20T06:04:43.077Z,34.17
2022-10-20T06:05:13.147Z,34.18
2022-10-20T06:05:43.228Z,34.16
2022-10-20T06:06:13.300Z,34.14
2022-10-20T06:06:43.395Z,34.17
2022-10-20T06:07:13.477Z,34.22
2022-10-20T06:07:43.548Z,34.18
2022-10-20T06:08:13.608Z,34.21
2022-10-20T06:08:43.698Z,34.21
2022-10-20T06:09:13.755Z,34.19
2022-10-20T06:09:43.848Z,34.23
2022-10-20T06:10:13.933Z,34.20
2022-10-20T06:10:44.008Z,34.16
2022-10-20T06:11:14.078Z,34.19
2022-10-20T06:11:44.170Z,34.19
2022-10-20T06:12:14.224Z,34.22
2022-10-20T06:12:44.299Z,34.25
2022-10-20T06:13:14.377Z,34.26
2022-10-20T06:13:47.068Z,34.22
2022-10-20T06:14:14.534Z,34.26
2022-10-20T06:14:44.601Z,34.22
2022-10-20T06:15:14.672Z,34.25
2022-10-20T06:15:44.747Z,34.21
2022-10-20T06:16:14.824Z,34.24
2022-10-20T06:16:44.920Z,34.23
2022-10-20T06:17:14.994Z,34.21
2022-10-20T06:17:45.070Z,34.26
2022-10-20T06:18:15.137Z,34.25
2022-10-20T06:18:45.218Z,34.25
2022-10-20T06:19:15.291Z,34.20
2022-10-20T06:19:45.358Z,34.25
2022-10-20T06:20:15.428Z,34.26
2022-10-20T06:20:45.513Z,34.26
2022-10-20T06:21:15.603Z,34.28
2022-10-20T06:21:45.694Z,34.26
2022-10-20T06:22:15.741Z,34.29
2022-10-20T06:22:45.854Z,34.25
2022-10-20T06:23:15.934Z,34.25
2022-10-20T06:23:46.008Z,34.28
2022-10-20T06:24:16.081Z,34.26
2022-10-20T06:24:46.184Z,34.26
2022-10-20T06:25:16.260Z,34.30
2022-10-20T06:25:46.372Z,34.27
2022-10-20T06:26:16.440Z,34.29
2022-10-20T06:26:46.536Z,34.32
2022-10-20T06:27:16.591Z,34.33
2022-10-20T06:27:46.674Z,34.29
2022-10-20T06:28:16.751Z,34.30
2022-10-20T06:28:46.817Z,34.26
2022-10-20T06:29:16.887Z,34.26
2022-10-20T06:29:46.963Z,34.27